Terminal Aerodrome Forecast
Issued by NWS Wilmington, OH

Current Version | Previous Version | Text Only | Print | Product List | Glossary Off
Versions: 1 2 3 4 5 6 7 8 9 10 11 12 13 14 15 16 17 18 19 20 21 22 23 24 25 26

000
FTUS41 KILN 172100 AAA
TAFCVG
TAF AMD
KCVG 172101Z 1721/1824 26008KT P6SM OVC016
     FM180000 31006KT P6SM OVC016
     FM181200 VRB03KT P6SM BKN016
     FM181800 VRB03KT P6SM BKN022=

USA.gov is the U.S. government's official web portal to all federal, state and local government web resources and services.